createdAt,value
2022-11-13T00:00:17.685Z,6.50
2022-11-13T00:01:17.708Z,6.20
2022-11-13T00:02:17.707Z,6.40
2022-11-13T00:03:17.654Z,6.50
2022-11-13T00:04:17.654Z,6.00
2022-11-13T00:05:17.666Z,6.60
2022-11-13T00:06:17.623Z,6.70
2022-11-13T00:07:17.701Z,5.90
2022-11-13T00:08:17.629Z,5.90
2022-11-13T00:09:17.600Z,6.40
2022-11-13T00:10:17.583Z,6.20
2022-11-13T00:11:17.565Z,7.00
2022-11-13T00:12:17.565Z,6.00
2022-11-13T00:13:17.551Z,5.90
2022-11-13T00:14:17.559Z,6.30
2022-11-13T00:15:17.533Z,5.70
2022-11-13T00:16:17.517Z,6.00
2022-11-13T00:17:17.517Z,5.90
2022-11-13T00:18:17.506Z,6.40
2022-11-13T00:19:17.490Z,5.90
2022-11-13T00:20:17.478Z,5.90
2022-11-13T00:21:17.457Z,6.10
2022-11-13T00:22:17.454Z,5.20
2022-11-13T00:23:17.444Z,5.80
2022-11-13T00:24:17.445Z,7.20
2022-11-13T00:25:17.479Z,7.10
2022-11-13T00:26:17.410Z,7.60
2022-11-13T00:27:17.394Z,6.20
2022-11-13T00:28:17.395Z,6.10
2022-11-13T00:29:23.410Z,5.70
2022-11-13T00:30:19.454Z,6.50
2022-11-13T00:31:17.355Z,6.30
2022-11-13T00:32:18.011Z,6.00
2022-11-13T00:33:38.275Z,5.90
2022-11-13T00:34:45.976Z,5.50
2022-11-13T00:35:17.346Z,5.50
2022-11-13T00:36:17.338Z,5.70
2022-11-13T00:37:17.291Z,5.50
2022-11-13T00:38:17.308Z,5.50
2022-11-13T00:39:17.283Z,5.50
2022-11-13T00:40:17.288Z,6.30
2022-11-13T00:41:17.249Z,5.80
2022-11-13T00:42:17.259Z,5.90
2022-11-13T00:43:17.267Z,5.60
2022-11-13T00:44:17.248Z,5.70
2022-11-13T00:45:17.273Z,5.50
2022-11-13T00:46:17.222Z,5.40
2022-11-13T00:47:17.187Z,5.30
2022-11-13T00:48:17.184Z,5.50
2022-11-13T00:49:17.176Z,5.50
2022-11-13T00:50:17.157Z,5.50
2022-11-13T00:51:17.160Z,4.80
2022-11-13T00:52:17.164Z,5.40
2022-11-13T00:53:18.296Z,5.80
2022-11-13T00:54:17.123Z,5.00
2022-11-13T00:55:17.119Z,5.50
2022-11-13T00:56:17.120Z,5.00
2022-11-13T00:57:17.096Z,6.10
2022-11-13T00:58:17.082Z,5.40
2022-11-13T00:59:17.097Z,5.20
2022-11-13T01:00:17.065Z,5.70
2022-11-13T01:01:17.136Z,5.40
2022-11-13T01:02:17.059Z,5.70
2022-11-13T01:03:17.052Z,5.30
2022-11-13T01:04:17.052Z,5.00
2022-11-13T01:05:16.993Z,4.70
2022-11-13T01:06:16.994Z,5.00
2022-11-13T01:07:17.054Z,5.20
2022-11-13T01:08:17.002Z,4.80
2022-11-13T01:09:16.966Z,4.90
2022-11-13T01:10:16.950Z,5.00
2022-11-13T01:11:16.934Z,5.10
2022-11-13T01:12:16.945Z,5.10
2022-11-13T01:13:16.964Z,5.00
2022-11-13T01:14:16.974Z,4.70
2022-11-13T01:15:16.905Z,4.70
2022-11-13T01:16:16.898Z,5.40
2022-11-13T01:17:16.877Z,4.80
2022-11-13T01:18:16.885Z,4.60
2022-11-13T01:19:16.902Z,4.70
2022-11-13T01:20:16.917Z,4.30
2022-11-13T01:21:16.962Z,4.80
2022-11-13T01:22:16.834Z,4.30
2022-11-13T01:23:16.812Z,4.80
2022-11-13T01:24:16.841Z,5.30
2022-11-13T01:25:16.788Z,4.60
2022-11-13T01:26:16.785Z,5.00
2022-11-13T01:27:16.872Z,4.70
2022-11-13T01:28:16.864Z,5.10
2022-11-13T01:29:16.761Z,4.80
2022-11-13T01:30:16.782Z,5.30
2022-11-13T01:31:16.792Z,5.10
2022-11-13T01:32:16.723Z,4.80
2022-11-13T01:33:16.798Z,5.00
2022-11-13T01:34:16.741Z,4.80
2022-11-13T01:35:16.699Z,4.80
2022-11-13T01:36:16.691Z,5.20
2022-11-13T01:37:16.716Z,4.40
2022-11-13T01:38:16.827Z,4.80
2022-11-13T01:39:16.736Z,4.80
2022-11-13T01:40:16.673Z,5.00
2022-11-13T01:41:21.867Z,4.20
2022-11-13T01:42:16.662Z,5.00
2022-11-13T01:43:16.656Z,4.60
2022-11-13T01:44:16.629Z,5.00
2022-11-13T01:45:16.589Z,4.80
2022-11-13T01:46:16.570Z,4.60
2022-11-13T01:47:16.576Z,4.80
2022-11-13T01:48:16.584Z,5.20
2022-11-13T01:49:16.588Z,4.70
2022-11-13T01:50:16.598Z,4.50
2022-11-13T01:51:16.547Z,4.30
2022-11-13T01:52:16.556Z,5.00
2022-11-13T01:53:16.503Z,5.00
2022-11-13T01:54:16.510Z,5.30
2022-11-13T01:55:16.536Z,4.70
2022-11-13T01:56:16.456Z,5.20
2022-11-13T01:57:16.541Z,4.50
2022-11-13T01:58:16.467Z,4.60
2022-11-13T01:59:16.475Z,4.50
2022-11-13T02:00:16.415Z,5.60
2022-11-13T02:01:16.454Z,4.70
2022-11-13T02:02:16.474Z,5.00
2022-11-13T02:03:16.456Z,4.80
2022-11-13T02:04:16.417Z,4.80
2022-11-13T02:05:16.495Z,5.00
2022-11-13T02:06:16.436Z,5.20
2022-11-13T02:07:16.415Z,5.30
2022-11-13T02:08:16.339Z,4.80
2022-11-13T02:09:16.336Z,5.60
2022-11-13T02:10:16.423Z,5.10
2022-11-13T02:11:16.371Z,5.40
2022-11-13T02:12:16.343Z,4.40
2022-11-13T02:13:16.344Z,4.70
2022-11-13T02:14:16.358Z,4.90
2022-11-13T02:15:16.258Z,4.70
2022-11-13T02:16:16.256Z,5.30
2022-11-13T02:17:16.238Z,5.20
2022-11-13T02:18:16.288Z,4.90
2022-11-13T02:19:16.224Z,4.90
2022-11-13T02:20:16.222Z,5.10
2022-11-13T02:21:16.190Z,5.30
2022-11-13T02:22:16.311Z,4.80
2022-11-13T02:23:16.220Z,5.20
2022-11-13T02:24:16.233Z,4.80
2022-11-13T02:25:16.224Z,4.80
2022-11-13T02:26:16.141Z,5.00
2022-11-13T02:27:16.132Z,5.30
2022-11-13T02:28:16.153Z,4.60
2022-11-13T02:29:16.207Z,5.10
2022-11-13T02:30:17.063Z,5.30
2022-11-13T02:31:16.094Z,4.70
2022-11-13T02:32:16.070Z,5.20
2022-11-13T02:33:16.098Z,4.90
2022-11-13T02:34:16.152Z,4.80
2022-11-13T02:35:16.047Z,5.20
2022-11-13T02:36:16.041Z,5.10
2022-11-13T02:37:16.016Z,5.20
2022-11-13T02:38:16.013Z,5.60
2022-11-13T02:39:16.013Z,4.80
2022-11-13T02:40:15.999Z,5.30
2022-11-13T02:41:15.994Z,5.00
2022-11-13T02:42:16.013Z,5.30
2022-11-13T02:43:16.021Z,4.90
2022-11-13T02:44:15.964Z,4.50
2022-11-13T02:45:16.019Z,4.90
2022-11-13T02:46:15.965Z,4.40
2022-11-13T02:47:15.917Z,5.40
2022-11-13T02:48:15.904Z,5.20
2022-11-13T02:49:15.983Z,5.30
2022-11-13T02:50:15.912Z,5.40
2022-11-13T02:51:15.881Z,5.30
2022-11-13T02:52:15.925Z,5.40
2022-11-13T02:53:15.896Z,4.80
2022-11-13T02:54:17.262Z,5.20
2022-11-13T02:55:15.837Z,5.10
2022-11-13T02:56:15.835Z,5.30
2022-11-13T02:57:15.810Z,6.00
2022-11-13T02:58:15.840Z,5.30
2022-11-13T02:59:15.801Z,5.60
2022-11-13T03:00:15.822Z,5.60
2022-11-13T03:01:15.850Z,5.50
2022-11-13T03:02:15.766Z,5.00
2022-11-13T03:03:29.054Z,5.10
2022-11-13T03:04:15.761Z,4.90
2022-11-13T03:05:15.740Z,6.10
2022-11-13T03:06:15.806Z,5.00
2022-11-13T03:07:15.803Z,4.20
2022-11-13T03:08:15.702Z,4.50
2022-11-13T03:09:15.705Z,5.70
2022-11-13T03:10:15.770Z,4.50
2022-11-13T03:11:15.666Z,4.40
2022-11-13T03:12:15.649Z,4.60
2022-11-13T03:13:15.650Z,4.60
2022-11-13T03:14:15.696Z,5.00
2022-11-13T03:15:15.636Z,5.50
2022-11-13T03:16:15.611Z,4.60
2022-11-13T03:17:15.620Z,5.40
2022-11-13T03:18:15.585Z,4.70
2022-11-13T03:19:15.620Z,5.00
2022-11-13T03:20:15.565Z,4.90
2022-11-13T03:21:15.561Z,4.30
2022-11-13T03:22:15.554Z,5.30
2022-11-13T03:23:15.548Z,5.00
2022-11-13T03:24:15.554Z,4.60
2022-11-13T03:25:15.515Z,5.00
2022-11-13T03:26:15.512Z,4.50
2022-11-13T03:27:15.516Z,4.70
2022-11-13T03:28:15.488Z,5.00
2022-11-13T03:29:15.506Z,4.70
2022-11-13T03:30:15.457Z,4.80
2022-11-13T03:31:15.457Z,4.30
2022-11-13T03:32:15.454Z,4.90
2022-11-13T03:33:15.434Z,4.60
2022-11-13T03:34:15.436Z,4.30
2022-11-13T03:35:15.415Z,4.10
2022-11-13T03:36:15.399Z,4.60
2022-11-13T03:37:15.382Z,4.30
2022-11-13T03:38:15.372Z,4.90
2022-11-13T03:39:15.402Z,3.80
2022-11-13T03:40:15.366Z,4.40
2022-11-13T03:41:15.351Z,4.40
2022-11-13T03:42:15.366Z,4.30
2022-11-13T03:43:15.329Z,3.70
2022-11-13T03:44:15.326Z,3.80
2022-11-13T03:45:15.338Z,4.30
2022-11-13T03:46:15.319Z,4.30
2022-11-13T03:47:15.290Z,3.50
2022-11-13T03:48:15.276Z,4.40
2022-11-13T03:49:15.292Z,4.20
2022-11-13T03:50:15.248Z,4.20
2022-11-13T03:51:15.244Z,3.50
2022-11-13T03:52:15.232Z,4.40
2022-11-13T03:53:15.231Z,3.70
2022-11-13T03:54:15.212Z,4.00
2022-11-13T03:55:15.227Z,3.50
2022-11-13T03:56:15.173Z,3.50
2022-11-13T03:57:15.181Z,4.00
2022-11-13T03:58:15.164Z,3.70
2022-11-13T03:59:15.187Z,3.50
2022-11-13T04:00:15.166Z,3.70
2022-11-13T04:01:15.140Z,3.70
2022-11-13T04:02:15.157Z,3.50
2022-11-13T04:03:15.108Z,4.10
2022-11-13T04:04:15.106Z,4.00
2022-11-13T04:05:19.977Z,3.40
2022-11-13T04:06:15.088Z,4.20
2022-11-13T04:07:15.114Z,3.80
2022-11-13T04:08:15.070Z,3.80
2022-11-13T04:09:15.069Z,3.70
2022-11-13T04:10:15.033Z,3.80
2022-11-13T04:11:15.064Z,3.50
2022-11-13T04:12:15.045Z,3.70
2022-11-13T04:13:15.001Z,5.00
2022-11-13T04:14:15.021Z,3.70
2022-11-13T04:15:15.086Z,4.00
2022-11-13T04:16:14.984Z,4.20
2022-11-13T04:17:14.975Z,3.70
2022-11-13T04:18:15.026Z,3.80
2022-11-13T04:19:14.989Z,3.50
2022-11-13T04:20:14.966Z,3.90
2022-11-13T04:21:14.948Z,3.50
2022-11-13T04:22:14.897Z,4.20
2022-11-13T04:23:14.934Z,3.30
2022-11-13T04:24:14.958Z,3.20
2022-11-13T04:25:14.887Z,3.70
2022-11-13T04:26:14.875Z,3.80
2022-11-13T04:27:14.974Z,3.50
2022-11-13T04:28:14.896Z,3.60
2022-11-13T04:29:14.893Z,3.90
2022-11-13T04:30:14.928Z,3.80
2022-11-13T04:31:14.847Z,3.70
2022-11-13T04:32:14.799Z,3.20
2022-11-13T04:33:14.801Z,4.00
2022-11-13T04:34:14.812Z,3.60
2022-11-13T04:35:14.923Z,3.90
2022-11-13T04:36:14.752Z,3.30
2022-11-13T04:37:14.743Z,3.50
2022-11-13T04:38:14.783Z,4.10
2022-11-13T04:39:14.737Z,3.70
2022-11-13T04:40:14.710Z,3.00
2022-11-13T04:41:14.737Z,3.60
2022-11-13T04:42:14.693Z,3.90
2022-11-13T04:43:14.693Z,4.40
2022-11-13T04:44:14.716Z,3.50
2022-11-13T04:45:14.666Z,3.60
2022-11-13T04:46:14.695Z,4.10
2022-11-13T04:47:14.639Z,3.30
2022-11-13T04:48:14.654Z,3.80
2022-11-13T04:49:14.709Z,3.40
2022-11-13T04:50:14.655Z,3.40
2022-11-13T04:51:14.599Z,3.50
2022-11-13T04:52:14.621Z,3.40
2022-11-13T04:53:14.636Z,3.70
2022-11-13T04:54:14.580Z,3.30
2022-11-13T04:55:14.584Z,3.40
2022-11-13T04:56:14.596Z,2.90
2022-11-13T04:57:14.623Z,3.80
2022-11-13T04:58:14.551Z,3.50
2022-11-13T04:59:14.587Z,3.60
2022-11-13T05:00:14.516Z,3.70
2022-11-13T05:01:14.685Z,3.90
2022-11-13T05:02:14.593Z,3.30
2022-11-13T05:03:14.488Z,3.70
2022-11-13T05:04:14.505Z,3.30
2022-11-13T05:05:14.453Z,3.60
2022-11-13T05:06:14.445Z,3.50
2022-11-13T05:07:14.522Z,3.60
2022-11-13T05:08:14.490Z,3.50
2022-11-13T05:09:14.467Z,3.20
2022-11-13T05:10:14.450Z,4.00
2022-11-13T05:11:14.445Z,3.60
2022-11-13T05:12:14.431Z,3.40
2022-11-13T05:13:14.380Z,3.80
2022-11-13T05:14:14.370Z,3.40
2022-11-13T05:15:14.343Z,3.20
2022-11-13T05:16:14.332Z,3.70
2022-11-13T05:17:14.360Z,3.50
2022-11-13T05:18:14.328Z,3.40
2022-11-13T05:19:14.307Z,3.10
2022-11-13T05:20:14.398Z,3.80
2022-11-13T05:21:14.286Z,3.80
2022-11-13T05:22:14.317Z,3.70
2022-11-13T05:23:14.357Z,3.60
2022-11-13T05:24:14.297Z,3.60
2022-11-13T05:25:14.259Z,3.80
2022-11-13T05:26:14.257Z,3.50
2022-11-13T05:27:17.528Z,3.60
2022-11-13T05:28:14.219Z,3.80
2022-11-13T05:29:14.216Z,3.30
2022-11-13T05:30:14.241Z,4.10
2022-11-13T05:31:14.178Z,3.90
2022-11-13T05:32:14.193Z,3.50
2022-11-13T05:33:14.179Z,3.90
2022-11-13T05:34:14.165Z,4.30
2022-11-13T05:35:14.152Z,3.70
2022-11-13T05:36:14.137Z,3.80
2022-11-13T05:37:14.125Z,4.10
2022-11-13T05:38:14.219Z,3.90
2022-11-13T05:39:14.108Z,4.30
2022-11-13T05:40:14.125Z,3.90
2022-11-13T05:41:14.112Z,4.00
2022-11-13T05:42:14.049Z,4.30
2022-11-13T05:43:14.079Z,4.00
2022-11-13T05:44:14.039Z,4.60
2022-11-13T05:45:14.090Z,3.90
2022-11-13T05:46:14.072Z,3.70
2022-11-13T05:47:14.061Z,3.50
2022-11-13T05:48:14.001Z,3.80
2022-11-13T05:49:14.003Z,4.10
2022-11-13T05:50:13.975Z,4.10
2022-11-13T05:51:14.012Z,4.10
2022-11-13T05:52:13.947Z,4.10
2022-11-13T05:53:14.011Z,4.20
2022-11-13T05:54:13.924Z,3.70
2022-11-13T05:55:13.991Z,4.20
2022-11-13T05:56:13.924Z,3.90
2022-11-13T05:57:13.943Z,4.30
2022-11-13T05:58:13.948Z,4.00
2022-11-13T05:59:13.927Z,5.30
2022-11-13T06:00:13.817Z,5.00
2022-11-13T06:01:13.801Z,5.20
2022-11-13T06:02:13.908Z,5.10
2022-11-13T06:03:13.852Z,5.00
2022-11-13T06:04:13.772Z,5.40
2022-11-13T06:05:13.855Z,5.10
2022-11-13T06:06:13.812Z,5.10
2022-11-13T06:07:13.871Z,5.50
2022-11-13T06:08:13.740Z,5.30
2022-11-13T06:09:13.730Z,5.00
2022-11-13T06:10:13.713Z,4.30
2022-11-13T06:11:13.690Z,5.10
2022-11-13T06:12:13.700Z,5.80
2022-11-13T06:13:13.744Z,5.50
2022-11-13T06:14:13.728Z,5.40
2022-11-13T06:15:13.717Z,5.80
2022-11-13T06:16:13.641Z,6.20
2022-11-13T06:17:13.638Z,5.80
2022-11-13T06:18:13.636Z,6.10
2022-11-13T06:19:13.663Z,5.90
2022-11-13T06:20:13.594Z,5.70
2022-11-13T06:21:13.595Z,5.80
2022-11-13T06:22:13.586Z,5.10
2022-11-13T06:23:13.584Z,5.30
2022-11-13T06:24:13.564Z,5.80
2022-11-13T06:25:13.559Z,5.40
2022-11-13T06:26:13.730Z,5.80
2022-11-13T06:27:13.528Z,6.10
2022-11-13T06:28:13.540Z,6.20
2022-11-13T06:29:13.511Z,5.70
2022-11-13T06:30:19.511Z,5.90
2022-11-13T06:31:14.157Z,6.00
2022-11-13T06:32:13.461Z,5.40
2022-11-13T06:33:14.121Z,5.80
2022-11-13T06:34:13.452Z,5.70
2022-11-13T06:35:13.450Z,5.30
2022-11-13T06:36:13.453Z,5.80
2022-11-13T06:37:13.434Z,5.10
2022-11-13T06:38:13.423Z,5.30
2022-11-13T06:39:13.471Z,5.30
2022-11-13T06:40:13.381Z,5.60
2022-11-13T06:41:13.377Z,4.80
2022-11-13T06:42:13.379Z,5.10
2022-11-13T06:43:13.376Z,6.20
2022-11-13T06:44:13.340Z,4.60
2022-11-13T06:45:13.338Z,5.00
2022-11-13T06:46:13.378Z,4.70
2022-11-13T06:47:13.324Z,4.80
2022-11-13T06:48:13.311Z,5.20
2022-11-13T06:49:13.372Z,4.60
2022-11-13T06:50:13.276Z,4.70
2022-11-13T06:51:13.273Z,4.50
2022-11-13T06:52:13.261Z,4.00
2022-11-13T06:53:13.263Z,4.20
2022-11-13T06:54:13.240Z,4.40
2022-11-13T06:55:13.233Z,4.00
2022-11-13T06:56:13.216Z,4.40
2022-11-13T06:57:13.203Z,4.30
2022-11-13T06:58:13.200Z,3.90
2022-11-13T06:59:13.189Z,4.10
2022-11-13T07:00:13.171Z,4.00
2022-11-13T07:01:13.215Z,4.00
2022-11-13T07:02:13.193Z,4.20
2022-11-13T07:03:13.143Z,4.80
2022-11-13T07:04:13.134Z,4.00
2022-11-13T07:05:13.153Z,3.80
2022-11-13T07:06:13.119Z,3.60
2022-11-13T07:07:13.134Z,4.00
2022-11-13T07:08:13.098Z,4.00
2022-11-13T07:09:13.079Z,4.30
2022-11-13T07:10:13.067Z,4.00
2022-11-13T07:11:13.056Z,4.00
2022-11-13T07:12:13.069Z,4.30
2022-11-13T07:13:13.058Z,3.60
2022-11-13T07:14:13.095Z,3.70
2022-11-13T07:15:13.020Z,4.30
2022-11-13T07:16:17.405Z,4.50
2022-11-13T07:17:13.015Z,3.60
2022-11-13T07:18:13.002Z,3.70
2022-11-13T07:19:12.972Z,3.80
2022-11-13T07:20:12.965Z,4.20
2022-11-13T07:21:12.987Z,4.20
2022-11-13T07:22:13.001Z,4.20
2022-11-13T07:23:12.953Z,4.00
2022-11-13T07:24:16.883Z,4.00
2022-11-13T07:25:12.916Z,4.00
2022-11-13T07:26:12.898Z,4.10
2022-11-13T07:27:12.990Z,3.90
2022-11-13T07:28:12.898Z,4.40
2022-11-13T07:29:12.904Z,4.20
2022-11-13T07:30:12.857Z,4.00
2022-11-13T07:31:12.845Z,4.10
2022-11-13T07:32:12.914Z,4.10
2022-11-13T07:33:12.861Z,3.80
2022-11-13T07:34:12.822Z,3.90
2022-11-13T07:35:12.821Z,4.90
2022-11-13T07:36:12.791Z,4.90
2022-11-13T07:37:12.843Z,3.90
2022-11-13T07:38:12.853Z,4.30
2022-11-13T07:39:12.753Z,4.50
2022-11-13T07:40:12.763Z,5.50
2022-11-13T07:41:12.794Z,4.80
2022-11-13T07:42:12.802Z,4.20
2022-11-13T07:43:12.781Z,4.60
2022-11-13T07:44:21.962Z,4.90
2022-11-13T07:45:12.800Z,4.40
2022-11-13T07:46:12.692Z,5.30
2022-11-13T07:47:12.670Z,4.30
2022-11-13T07:48:12.756Z,4.10
2022-11-13T07:49:12.760Z,4.40
2022-11-13T07:50:12.736Z,4.30
2022-11-13T07:51:12.631Z,4.40
2022-11-13T07:52:12.681Z,4.10
2022-11-13T07:53:12.604Z,4.40
2022-11-13T07:54:12.664Z,4.60
2022-11-13T07:55:12.613Z,4.50
2022-11-13T07:56:12.608Z,5.00
2022-11-13T07:57:12.611Z,4.50
2022-11-13T07:58:12.641Z,5.00
2022-11-13T07:59:12.548Z,4.90
2022-11-13T08:00:12.607Z,4.80
2022-11-13T08:01:12.660Z,5.00
2022-11-13T08:02:12.598Z,4.20
2022-11-13T08:03:12.525Z,5.30
2022-11-13T08:04:12.517Z,4.70
2022-11-13T08:05:12.522Z,4.30
2022-11-13T08:06:12.474Z,4.10
2022-11-13T08:07:12.521Z,4.60
2022-11-13T08:08:12.487Z,4.30
2022-11-13T08:09:12.453Z,4.80
2022-11-13T08:10:12.495Z,4.70
2022-11-13T08:11:12.471Z,4.40
2022-11-13T08:12:12.479Z,4.30
2022-11-13T08:13:12.501Z,5.00
2022-11-13T08:14:12.477Z,4.00
2022-11-13T08:15:13.682Z,4.80
2022-11-13T08:16:12.389Z,4.60
2022-11-13T08:17:12.383Z,5.10
2022-11-13T08:18:12.423Z,4.50
2022-11-13T08:19:12.408Z,4.40
2022-11-13T08:20:12.324Z,4.80
2022-11-13T08:21:15.122Z,4.10
2022-11-13T08:22:12.345Z,4.60
2022-11-13T08:23:12.330Z,5.10
2022-11-13T08:24:12.387Z,4.90
2022-11-13T08:25:12.281Z,5.10
2022-11-13T08:26:12.274Z,5.10
2022-11-13T08:27:12.254Z,5.00
2022-11-13T08:28:13.421Z,7.10
2022-11-13T08:29:12.233Z,5.80
2022-11-13T08:30:12.221Z,5.50
2022-11-13T08:31:12.209Z,5.30
2022-11-13T08:32:12.218Z,4.80
2022-11-13T08:33:12.201Z,4.70
2022-11-13T08:34:12.223Z,4.70
2022-11-13T08:35:17.357Z,5.10
2022-11-13T08:36:12.162Z,5.20
2022-11-13T08:37:12.150Z,4.80
2022-11-13T08:38:12.170Z,4.60
2022-11-13T08:39:12.131Z,5.60
2022-11-13T08:40:12.156Z,5.30
2022-11-13T08:41:12.107Z,7.10
2022-11-13T08:42:12.168Z,5.60
2022-11-13T08:43:12.083Z,5.00
2022-11-13T08:44:12.074Z,5.20
2022-11-13T08:45:12.058Z,4.90
2022-11-13T08:46:12.051Z,4.70
2022-11-13T08:47:12.044Z,4.60
2022-11-13T08:48:12.094Z,5.00
2022-11-13T08:49:12.024Z,4.60
2022-11-13T08:50:12.032Z,5.10
2022-11-13T08:51:12.146Z,4.20
2022-11-13T08:52:12.009Z,4.90
2022-11-13T08:53:11.990Z,5.60
2022-11-13T08:54:11.973Z,4.90
2022-11-13T08:55:11.949Z,5.20
2022-11-13T08:56:12.043Z,5.20
2022-11-13T08:57:11.957Z,7.60
2022-11-13T08:58:11.977Z,4.70
2022-11-13T08:59:11.916Z,4.70
2022-11-13T09:00:11.900Z,4.30
2022-11-13T09:01:11.917Z,4.90
2022-11-13T09:02:11.900Z,4.70
2022-11-13T09:03:11.862Z,5.40
2022-11-13T09:04:11.951Z,4.90
2022-11-13T09:05:11.855Z,5.30
2022-11-13T09:06:11.878Z,5.30
2022-11-13T09:07:12.006Z,5.30
2022-11-13T09:08:11.926Z,4.80
2022-11-13T09:09:11.800Z,5.60
2022-11-13T09:10:11.833Z,5.30
2022-11-13T09:11:11.803Z,4.80
2022-11-13T09:12:11.799Z,4.80
2022-11-13T09:13:11.761Z,5.00
2022-11-13T09:14:11.753Z,4.90
2022-11-13T09:15:11.766Z,4.90
2022-11-13T09:16:11.741Z,5.20
2022-11-13T09:17:11.788Z,4.50
2022-11-13T09:18:11.713Z,5.40
2022-11-13T09:19:11.693Z,5.30
2022-11-13T09:20:14.014Z,4.50
2022-11-13T09:21:11.702Z,5.10
2022-11-13T09:22:11.700Z,5.80
2022-11-13T09:23:11.648Z,4.50
2022-11-13T09:24:11.649Z,4.80
2022-11-13T09:25:11.636Z,4.90
2022-11-13T09:26:11.648Z,4.50
2022-11-13T09:27:11.627Z,5.00
2022-11-13T09:28:11.618Z,4.60
2022-11-13T09:29:11.634Z,4.10
2022-11-13T09:30:11.590Z,4.70
2022-11-13T09:31:11.606Z,4.90
2022-11-13T09:32:11.763Z,5.10
2022-11-13T09:33:11.548Z,4.70
2022-11-13T09:34:11.537Z,5.10
2022-11-13T09:35:11.537Z,4.70
2022-11-13T09:36:11.526Z,4.60
2022-11-13T09:37:11.514Z,4.60
2022-11-13T09:38:11.863Z,4.10
2022-11-13T09:39:11.494Z,3.90
2022-11-13T09:40:11.497Z,4.40
2022-11-13T09:41:11.479Z,4.30
2022-11-13T09:42:11.459Z,4.80
2022-11-13T09:43:11.455Z,4.50
2022-11-13T09:44:11.473Z,4.30
2022-11-13T09:45:11.416Z,4.30
2022-11-13T09:46:11.444Z,4.50
2022-11-13T09:47:11.397Z,4.50
2022-11-13T09:48:11.404Z,4.30
2022-11-13T09:49:11.378Z,4.30
2022-11-13T09:50:11.412Z,4.20
2022-11-13T09:51:11.372Z,4.50
2022-11-13T09:52:11.350Z,4.40
2022-11-13T09:53:11.353Z,4.10
2022-11-13T09:54:11.351Z,3.90
2022-11-13T09:55:11.331Z,4.20
2022-11-13T09:56:11.318Z,4.30
2022-11-13T09:57:11.303Z,4.00
2022-11-13T09:58:11.285Z,4.30
2022-11-13T09:59:11.284Z,4.10
2022-11-13T10:00:11.281Z,4.70
2022-11-13T10:01:11.280Z,4.10
2022-11-13T10:02:11.242Z,3.80
2022-11-13T10:03:11.229Z,4.60
2022-11-13T10:04:14.286Z,4.50
2022-11-13T10:05:11.210Z,4.60
2022-11-13T10:06:11.227Z,3.80
2022-11-13T10:07:11.225Z,4.50
2022-11-13T10:08:11.175Z,4.60
2022-11-13T10:09:11.184Z,4.40
2022-11-13T10:10:11.157Z,4.20
2022-11-13T10:11:11.140Z,3.90
2022-11-13T10:12:11.159Z,4.30
2022-11-13T10:13:11.133Z,4.30
2022-11-13T10:14:11.123Z,3.80
2022-11-13T10:15:11.094Z,3.50
2022-11-13T10:16:11.102Z,4.00
2022-11-13T10:17:11.115Z,4.10
2022-11-13T10:18:11.081Z,4.60
2022-11-13T10:19:11.058Z,4.00
2022-11-13T10:20:11.058Z,7.50
2022-11-13T10:21:11.035Z,7.00
2022-11-13T10:22:32.330Z,4.10
2022-11-13T10:23:11.025Z,4.00
2022-11-13T10:24:14.284Z,3.80
2022-11-13T10:25:10.989Z,4.10
2022-11-13T10:26:11.019Z,4.10
2022-11-13T10:27:10.969Z,3.70
2022-11-13T10:28:35.012Z,4.10
2022-11-13T10:29:11.096Z,4.00
2022-11-13T10:30:10.949Z,4.10
2022-11-13T10:31:10.940Z,3.90
2022-11-13T10:32:10.923Z,3.60
2022-11-13T10:33:10.911Z,4.00
2022-11-13T10:34:10.902Z,3.70
2022-11-13T10:35:10.893Z,3.90
2022-11-13T10:36:10.901Z,4.00
2022-11-13T10:37:10.879Z,3.50
2022-11-13T10:38:10.863Z,4.10
2022-11-13T10:39:10.870Z,4.00
2022-11-13T10:40:10.867Z,3.90
2022-11-13T10:41:10.833Z,4.00
2022-11-13T10:42:10.820Z,4.40
2022-11-13T10:43:10.799Z,3.80
2022-11-13T10:44:10.792Z,3.80
2022-11-13T10:45:12.457Z,4.60
2022-11-13T10:46:10.815Z,4.10
2022-11-13T10:47:10.755Z,4.40
2022-11-13T10:48:10.749Z,4.20
2022-11-13T10:49:10.765Z,4.10
2022-11-13T10:50:10.791Z,4.00
2022-11-13T10:51:10.723Z,3.70
2022-11-13T10:52:11.413Z,4.30
2022-11-13T10:53:10.698Z,4.30
2022-11-13T10:54:10.691Z,4.10
2022-11-13T10:55:10.670Z,3.50
2022-11-13T10:56:10.678Z,4.20
2022-11-13T10:57:10.680Z,3.80
2022-11-13T10:58:10.675Z,4.10
2022-11-13T10:59:10.641Z,4.00
2022-11-13T11:00:10.641Z,4.30
2022-11-13T11:01:10.701Z,3.90
2022-11-13T11:02:10.630Z,4.10
2022-11-13T11:03:10.606Z,4.30
2022-11-13T11:04:10.632Z,3.50
2022-11-13T11:05:10.563Z,4.40
2022-11-13T11:06:10.576Z,3.60
2022-11-13T11:07:20.340Z,4.00
2022-11-13T11:08:10.753Z,3.80
2022-11-13T11:09:10.639Z,4.10
2022-11-13T11:10:10.531Z,4.30
2022-11-13T11:11:10.518Z,4.50
2022-11-13T11:12:10.514Z,4.10
2022-11-13T11:13:10.575Z,3.60
2022-11-13T11:14:10.471Z,4.50
2022-11-13T11:15:10.469Z,3.90
2022-11-13T11:16:10.647Z,4.40
2022-11-13T11:17:10.461Z,3.90
2022-11-13T11:18:10.603Z,3.90
2022-11-13T11:19:10.607Z,3.60
2022-11-13T11:20:10.401Z,3.80
2022-11-13T11:21:10.402Z,4.00
2022-11-13T11:22:10.685Z,3.70
2022-11-13T11:23:10.385Z,3.60
2022-11-13T11:24:10.375Z,3.60
2022-11-13T11:25:10.353Z,4.30
2022-11-13T11:26:10.364Z,4.00
2022-11-13T11:27:10.349Z,3.70
2022-11-13T11:28:10.319Z,3.80
2022-11-13T11:29:10.314Z,4.50
2022-11-13T11:30:10.542Z,3.10
2022-11-13T11:31:10.306Z,3.70
2022-11-13T11:32:10.586Z,3.60
2022-11-13T11:33:10.271Z,3.40
2022-11-13T11:34:10.257Z,3.90
2022-11-13T11:35:10.263Z,4.20
2022-11-13T11:36:10.562Z,4.10
2022-11-13T11:37:10.246Z,3.90
2022-11-13T11:38:10.218Z,3.70
2022-11-13T11:39:10.501Z,3.60
2022-11-13T11:40:10.203Z,3.90
2022-11-13T11:41:15.981Z,4.10
2022-11-13T11:42:10.205Z,4.10
2022-11-13T11:43:10.177Z,3.90
2022-11-13T11:44:10.159Z,3.60
2022-11-13T11:45:10.143Z,3.90
2022-11-13T11:46:10.126Z,4.00
2022-11-13T11:47:10.152Z,3.80
2022-11-13T11:48:10.125Z,6.00
2022-11-13T11:49:10.105Z,4.30
2022-11-13T11:50:10.089Z,3.90
2022-11-13T11:51:10.095Z,5.50
2022-11-13T11:52:10.063Z,5.00
2022-11-13T11:53:10.127Z,4.80
2022-11-13T11:54:10.060Z,4.10
2022-11-13T11:55:10.035Z,4.10
2022-11-13T11:56:10.055Z,4.90
2022-11-13T11:57:10.014Z,4.40
2022-11-13T11:58:10.032Z,4.20
2022-11-13T11:59:10.170Z,4.20
2022-11-13T12:00:10.002Z,3.60
2022-11-13T12:01:10.081Z,4.80
2022-11-13T12:02:10.071Z,3.90
2022-11-13T12:03:10.004Z,4.80
2022-11-13T12:04:09.937Z,4.20
2022-11-13T12:05:10.373Z,4.20
2022-11-13T12:06:09.929Z,4.20
2022-11-13T12:07:10.009Z,4.10
2022-11-13T12:08:09.911Z,4.30
2022-11-13T12:09:09.906Z,4.90
2022-11-13T12:10:09.997Z,4.50
2022-11-13T12:11:09.875Z,4.40
2022-11-13T12:12:09.854Z,4.00
2022-11-13T12:13:09.896Z,4.00
2022-11-13T12:14:09.832Z,4.70
2022-11-13T12:15:09.825Z,4.70
2022-11-13T12:16:09.826Z,4.10
2022-11-13T12:17:16.906Z,4.30
2022-11-13T12:18:09.883Z,4.30
2022-11-13T12:19:09.823Z,4.50
2022-11-13T12:20:09.771Z,4.70
2022-11-13T12:21:09.845Z,4.70
2022-11-13T12:22:09.778Z,4.90
2022-11-13T12:23:09.752Z,4.60
2022-11-13T12:24:09.740Z,4.80
2022-11-13T12:25:09.790Z,4.60
2022-11-13T12:26:09.808Z,4.60
2022-11-13T12:27:09.701Z,4.00
2022-11-13T12:28:09.733Z,4.70
2022-11-13T12:29:09.690Z,4.40
2022-11-13T12:30:09.674Z,4.40
2022-11-13T12:31:16.698Z,4.00
2022-11-13T12:32:10.834Z,4.10
2022-11-13T12:33:11.244Z,4.50
2022-11-13T12:34:09.621Z,4.30
2022-11-13T12:35:09.838Z,4.20
2022-11-13T12:36:09.610Z,4.60
2022-11-13T12:37:09.607Z,4.70
2022-11-13T12:38:09.604Z,3.80
2022-11-13T12:39:09.622Z,4.10
2022-11-13T12:40:09.656Z,4.70
2022-11-13T12:41:09.640Z,4.30
2022-11-13T12:42:09.537Z,4.40
2022-11-13T12:43:09.523Z,4.50
2022-11-13T12:44:09.524Z,5.90
2022-11-13T12:45:09.524Z,4.80
2022-11-13T12:46:09.502Z,5.10
2022-11-13T12:47:09.481Z,4.40
2022-11-13T12:48:09.489Z,4.60
2022-11-13T12:49:09.477Z,4.60
2022-11-13T12:50:09.455Z,4.80
2022-11-13T12:51:09.470Z,4.60
2022-11-13T12:52:09.469Z,4.60
2022-11-13T12:53:09.414Z,4.40
2022-11-13T12:54:09.406Z,4.60
2022-11-13T12:55:09.432Z,4.50
2022-11-13T12:56:09.401Z,4.50
2022-11-13T12:57:09.375Z,4.10
2022-11-13T12:58:09.364Z,4.40
2022-11-13T12:59:29.682Z,4.30
2022-11-13T13:00:09.405Z,4.60
2022-11-13T13:01:09.420Z,4.90
2022-11-13T13:02:09.344Z,4.60
2022-11-13T13:03:09.341Z,4.90
2022-11-13T13:04:09.331Z,5.60
2022-11-13T13:05:09.316Z,4.50
2022-11-13T13:06:09.301Z,4.20
2022-11-13T13:07:09.370Z,4.70
2022-11-13T13:08:09.260Z,4.50
2022-11-13T13:09:09.247Z,4.70
2022-11-13T13:10:09.287Z,5.00
2022-11-13T13:11:09.297Z,4.60
2022-11-13T13:12:09.247Z,4.60
2022-11-13T13:13:09.210Z,5.40
2022-11-13T13:14:09.254Z,4.90
2022-11-13T13:15:09.188Z,4.90
2022-11-13T13:16:09.184Z,5.10
2022-11-13T13:17:09.166Z,4.70
2022-11-13T13:18:09.146Z,4.80